Time;durP1;ratioP1;P1;durP2;ratioP2;P2;SDS_P1;SDS_P2;PMS_P1;PMS_P2;Temp;Humidity;BMP_temperature;BMP_pressure;BME280_temperature;BME280_humidity;BME280_pressure;Samples;Min_cycle;Max_cycle;Signal;HPM_P1;HPM_P2
2022/07/22 00:00:09;;;;;;;9.65;4.93;;;;;;;18.24;76.58;101115.38;5034140;28;20063;-81
2022/07/22 00:03:13;;;;;;;8.40;4.80;;;;;;;18.64;74.73;101117.66;5033839;28;20127;-81
2022/07/22 00:06:16;;;;;;;10.38;5.00;;;;;;;18.64;74.17;101109.72;5033954;28;20084;-81
2022/07/22 00:09:20;;;;;;;8.95;5.28;;;;;;;18.38;75.42;101110.84;5032810;28;20062;-81
2022/07/22 00:12:23;;;;;;;7.63;4.47;;;;;;;18.35;76.00;101110.13;5032591;28;20466;-81
2022/07/22 00:15:26;;;;;;;7.03;4.45;;;;;;;18.27;75.84;101109.84;5032486;28;20565;-81
2022/07/22 00:18:30;;;;;;;7.25;5.53;;;;;;;18.19;76.49;101114.91;5033643;28;20053;-80
2022/07/22 00:21:33;;;;;;;7.28;4.75;;;;;;;18.12;75.39;101103.06;5033734;28;20044;-81
2022/07/22 00:24:36;;;;;;;8.20;4.68;;;;;;;18.29;74.46;101104.47;5033892;28;20494;-80
2022/07/22 00:27:40;;;;;;;10.65;4.95;;;;;;;18.11;75.41;101109.31;5032525;28;20147;-81
2022/07/22 00:30:43;;;;;;;7.18;4.10;;;;;;;18.37;74.19;101110.00;5033492;28;20048;-80
2022/07/22 00:33:50;;;;;;;7.18;5.15;;;;;;;18.24;74.58;101104.78;5033591;28;20549;-80
2022/07/22 00:36:53;;;;;;;7.03;4.65;;;;;;;18.17;74.53;101105.38;5032309;28;20179;-80
2022/07/22 00:39:56;;;;;;;7.47;5.00;;;;;;;18.28;74.15;101100.97;5033048;28;20419;-80
2022/07/22 00:43:00;;;;;;;6.93;5.03;;;;;;;18.44;73.60;101107.72;5033280;28;20091;-80
2022/07/22 00:46:03;;;;;;;10.82;5.70;;;;;;;18.10;76.02;101107.66;5032597;28;20078;-80
2022/07/22 00:49:08;;;;;;;9.55;4.55;;;;;;;18.30;74.21;101104.31;5033591;28;20076;-80
2022/07/22 00:52:12;;;;;;;6.10;4.70;;;;;;;18.42;73.98;101107.03;5032908;28;20079;-80
2022/07/22 00:55:15;;;;;;;9.18;4.65;;;;;;;18.34;74.15;101111.06;5032385;28;20044;-80
2022/07/22 00:58:21;;;;;;;10.48;6.20;;;;;;;18.45;73.99;101102.34;5032736;28;20514;-80
2022/07/22 01:01:25;;;;;;;11.10;5.47;;;;;;;18.42;74.03;101099.09;5033027;28;20119;-80
2022/07/22 01:04:28;;;;;;;8.82;5.65;;;;;;;18.18;76.23;101099.97;5032887;28;20048;-80
2022/07/22 01:07:32;;;;;;;9.15;5.90;;;;;;;18.12;76.88;101098.63;5032560;28;20044;-80
2022/07/22 01:10:35;;;;;;;8.52;5.47;;;;;;;18.00;77.58;101094.25;5032787;28;20048;-80
2022/07/22 01:13:39;;;;;;;10.07;5.50;;;;;;;18.03;77.47;101095.84;5032711;28;20584;-80
2022/07/22 01:16:43;;;;;;;6.40;4.50;;;;;;;18.35;76.19;101091.59;5031826;28;20064;-79
2022/07/22 01:19:47;;;;;;;9.80;5.43;;;;;;;18.36;75.78;101087.16;5031381;28;20063;-79
2022/07/22 01:22:50;;;;;;;7.35;5.72;;;;;;;18.21;76.41;101098.88;5032071;28;20056;-79
2022/07/22 01:25:54;;;;;;;7.55;5.22;;;;;;;18.05;77.51;101096.53;5031816;28;20044;-79
2022/07/22 01:28:57;;;;;;;7.28;5.40;;;;;;;18.08;77.68;101091.88;5031383;28;20132;-79
2022/07/22 01:32:00;;;;;;;10.93;5.68;;;;;;;18.04;77.90;101092.22;5031533;28;20140;-78
2022/07/22 01:35:04;;;;;;;6.22;4.68;;;;;;;18.25;76.54;101085.31;5031579;28;20072;-79
2022/07/22 01:38:08;;;;;;;7.55;5.10;;;;;;;18.57;74.95;101089.97;5030598;28;20080;-79
2022/07/22 01:41:12;;;;;;;9.45;5.68;;;;;;;18.36;75.54;101087.97;5020498;28;20553;-78
2022/07/22 01:44:16;;;;;;;9.45;4.85;;;;;;;18.42;75.06;101084.03;5031415;28;20060;-79
2022/07/22 01:47:19;;;;;;;11.18;6.43;;;;;;;18.43;75.16;101082.22;5031586;28;20131;-79
2022/07/22 01:50:22;;;;;;;11.00;5.85;;;;;;;18.31;76.24;101087.50;5031874;28;20055;-79
2022/07/22 01:53:27;;;;;;;9.07;5.75;;;;;;;18.30;76.07;101087.59;5020079;28;20514;-80
2022/07/22 01:56:30;;;;;;;8.40;5.28;;;;;;;18.38;75.85;101084.38;5031000;28;20407;-79
2022/07/22 01:59:34;;;;;;;8.48;5.95;;;;;;;18.53;75.11;101091.16;5031193;28;20045;-79
2022/07/22 02:02:38;;;;;;;11.10;5.30;;;;;;;18.56;74.79;101088.25;5030949;28;20122;-79
2022/07/22 02:05:42;;;;;;;7.20;4.93;;;;;;;18.78;73.84;101083.03;5031958;28;20048;-78
2022/07/22 02:08:55;;;;;;;8.02;5.15;;;;;;;18.70;73.63;101080.09;5031053;28;20150;-78
2022/07/22 02:12:19;;;;;;;7.32;4.82;;;;;;;18.78;72.95;101082.19;5031811;28;20419;-79
2022/07/22 02:15:23;;;;;;;8.20;4.45;;;;;;;18.79;72.41;101084.72;5031132;28;20108;-79
2022/07/22 02:18:26;;;;;;;9.88;4.72;;;;;;;18.89;72.41;101084.84;5030801;28;20044;-79
2022/07/22 02:21:29;;;;;;;5.85;4.85;;;;;;;18.96;71.60;101080.75;5030543;28;20514;-79
2022/07/22 02:24:36;;;;;;;10.40;5.80;;;;;;;18.87;73.23;101085.94;5030757;28;20127;-79
2022/07/22 02:27:41;;;;;;;8.00;4.95;;;;;;;18.75;74.34;101075.31;5019489;28;20187;-80
2022/07/22 02:30:45;;;;;;;8.50;4.97;;;;;;;18.95;73.71;101078.19;5030629;28;20117;-80
2022/07/22 02:33:49;;;;;;;6.10;4.32;;;;;;;18.84;72.55;101080.88;5030778;28;20136;-80
2022/07/22 02:36:53;;;;;;;7.18;4.55;;;;;;;18.95;71.71;101079.06;5034537;28;20044;-80
2022/07/22 02:39:56;;;;;;;8.15;5.10;;;;;;;18.89;72.76;101078.69;5033977;28;20147;-79
2022/07/22 02:43:00;;;;;;;10.18;5.15;;;;;;;18.70;74.15;101080.09;5034831;28;20057;-78
2022/07/22 02:46:03;;;;;;;7.50;5.05;;;;;;;18.66;74.86;101072.50;5034654;28;20111;-80
2022/07/22 02:49:06;;;;;;;7.28;5.13;;;;;;;18.65;75.14;101069.00;5023411;28;20068;-78
2022/07/22 02:52:09;;;;;;;7.65;5.55;;;;;;;18.55;75.31;101071.53;5033347;28;20091;-78
2022/07/22 02:55:13;;;;;;;6.15;4.13;;;;;;;18.50;75.66;101072.84;5034222;28;20048;-79
2022/07/22 02:58:16;;;;;;;9.40;4.78;;;;;;;18.52;75.78;101070.94;5032234;28;20081;-78
2022/07/22 03:01:21;;;;;;;6.93;5.00;;;;;;;18.51;75.88;101072.75;5032456;28;20590;-78
2022/07/22 03:04:30;;;;;;;6.47;4.78;;;;;;;18.53;75.10;101078.75;5033293;28;20048;-79
2022/07/22 03:07:34;;;;;;;7.32;5.07;;;;;;;18.74;74.37;101076.28;5033798;28;20044;-79
2022/07/22 03:10:37;;;;;;;5.75;4.40;;;;;;;18.69;74.39;101086.34;5033997;28;20044;-79
2022/07/22 03:13:41;;;;;;;6.07;4.32;;;;;;;18.86;73.46;101085.09;5034420;28;20149;-80
2022/07/22 03:16:45;;;;;;;5.85;4.40;;;;;;;18.63;75.12;101088.63;5034110;28;20069;-79
2022/07/22 03:19:48;;;;;;;8.40;4.82;;;;;;;18.59;75.37;101090.69;5034193;28;20099;-80
2022/07/22 03:22:52;;;;;;;7.90;4.70;;;;;;;18.56;75.45;101088.25;5034015;28;20111;-80
2022/07/22 03:25:56;;;;;;;6.30;4.93;;;;;;;18.49;75.98;101092.34;5033942;28;20067;-80
2022/07/22 03:28:59;;;;;;;8.02;5.13;;;;;;;18.52;75.53;101094.75;5034087;28;20461;-80
2022/07/22 03:32:03;;;;;;;6.65;4.80;;;;;;;18.49;75.38;101095.84;5034059;28;20179;-79
2022/07/22 03:35:16;;;;;;;6.65;4.93;;;;;;;18.79;73.70;101095.31;5032757;28;20055;-80
2022/07/22 03:38:21;;;;;;;5.88;4.65;;;;;;;18.71;74.01;101092.38;5031989;28;20179;-81
2022/07/22 03:41:26;;;;;;;7.07;4.85;;;;;;;18.81;73.55;101089.88;5033869;28;20129;-79
2022/07/22 03:44:29;;;;;;;6.10;4.50;;;;;;;18.71;74.14;101094.19;5033488;28;20040;-80
2022/07/22 03:47:33;;;;;;;8.43;5.03;;;;;;;18.61;74.40;101101.16;5031219;28;20048;-79
2022/07/22 03:50:36;;;;;;;8.50;5.00;;;;;;;18.56;74.58;101105.00;5031953;28;20190;-77
2022/07/22 03:53:40;;;;;;;5.72;4.20;;;;;;;18.81;73.17;101103.97;5033618;28;20044;-78
2022/07/22 03:56:43;;;;;;;7.03;4.25;;;;;;;18.85;72.94;101099.28;5033227;28;20061;-76
2022/07/22 03:59:46;;;;;;;6.00;4.80;;;;;;;18.84;73.22;101102.06;5032721;28;20047;-80
2022/07/22 04:02:49;;;;;;;6.40;4.45;;;;;;;18.68;74.43;101097.91;5032835;28;20047;-84
2022/07/22 04:05:59;;;;;;;8.10;4.95;;;;;;;18.64;75.05;101092.97;5032851;28;20048;-80
2022/07/22 04:09:17;;;;;;;8.30;4.72;;;;;;;18.63;74.90;101092.13;5032401;28;20043;-72
2022/07/22 04:12:20;;;;;;;7.93;4.40;;;;;;;18.51;76.16;101090.44;5033005;28;20048;-71
2022/07/22 04:15:43;;;;;;;8.00;5.03;;;;;;;18.45;76.17;101090.91;5033500;28;20091;-69
2022/07/22 04:18:47;;;;;;;6.70;4.70;;;;;;;18.48;76.21;101090.66;5032682;28;20447;-70
2022/07/22 04:21:51;;;;;;;8.18;4.72;;;;;;;18.45;76.43;101090.91;5032758;28;20104;-78
2022/07/22 04:24:56;;;;;;;8.30;5.72;;;;;;;18.54;75.98;101085.75;5032088;28;20043;-78
2022/07/22 04:28:01;;;;;;;10.23;4.57;;;;;;;18.56;76.35;101082.97;5033012;28;20056;-69
2022/07/22 04:31:04;;;;;;;6.82;5.35;;;;;;;18.56;76.27;101082.97;5029300;28;20411;-70
2022/07/22 04:34:08;;;;;;;6.30;5.10;;;;;;;18.50;76.39;101078.97;5029762;28;20056;-68
2022/07/22 04:37:11;;;;;;;7.70;5.22;;;;;;;18.41;75.83;101068.25;5025583;28;20056;-69
2022/07/22 04:40:17;;;;;;;9.88;5.65;;;;;;;18.40;75.54;101075.34;5030970;28;20052;-68
2022/07/22 04:43:21;;;;;;;6.53;4.88;;;;;;;18.50;75.64;101083.44;5033448;28;20148;-69
2022/07/22 04:46:24;;;;;;;7.38;5.32;;;;;;;18.44;75.71;101081.25;5031613;28;20792;-69
2022/07/22 04:49:39;;;;;;;11.63;5.72;;;;;;;18.39;75.94;101078.13;5032513;28;20059;-70
2022/07/22 04:52:43;;;;;;;7.95;4.93;;;;;;;18.54;75.02;101082.25;5032499;28;20048;-70
2022/07/22 04:55:46;;;;;;;8.63;5.45;;;;;;;18.53;75.38;101077.91;5032295;28;20569;-69
2022/07/22 04:58:51;;;;;;;6.35;4.90;;;;;;;18.58;74.54;101081.06;5031947;28;20052;-69
2022/07/22 05:01:54;;;;;;;7.88;5.05;;;;;;;18.44;74.07;101086.53;5030349;28;20044;-69
2022/07/22 05:04:58;;;;;;;8.23;4.78;;;;;;;18.55;73.99;101082.13;5032278;28;20080;-69
2022/07/22 05:08:02;;;;;;;10.25;5.07;;;;;;;18.78;73.84;101077.72;5032192;28;20053;-70
2022/07/22 05:14:41;;;;;;;8.65;5.88;;;;;;;19.15;72.01;101072.19;5021004;28;20438;-70
2022/07/22 05:17:45;;;;;;;7.75;4.45;;;;;;;18.99;72.21;101071.72;5025599;28;20037;-70
2022/07/22 05:20:56;;;;;;;11.52;8.93;;;;;;;18.95;71.38;101079.06;5024979;28;20573;-70
2022/07/22 05:24:00;;;;;;;11.77;10.50;;;;;;;19.08;71.34;101078.94;5011742;28;20053;-70
2022/07/22 05:27:04;;;;;;;17.02;12.20;;;;;;;19.13;70.53;101075.91;5011429;28;20053;-70
2022/07/22 05:30:08;;;;;;;15.15;10.93;;;;;;;18.97;71.14;101079.78;5011437;28;20129;-69
2022/07/22 05:33:12;;;;;;;13.88;11.77;;;;;;;18.73;71.41;101079.03;5036639;28;20132;-69
2022/07/22 05:36:35;;;;;;;15.35;12.95;;;;;;;18.63;71.99;101080.69;5030720;28;20051;-70
2022/07/22 05:39:39;;;;;;;13.43;11.68;;;;;;;18.65;72.28;101076.97;5037880;28;20529;-68
2022/07/22 05:42:42;;;;;;;15.73;10.93;;;;;;;18.71;70.91;101073.84;5036476;28;20517;-75
2022/07/22 05:45:46;;;;;;;14.60;10.90;;;;;;;18.69;70.80;101073.09;5030381;28;20367;-71
2022/07/22 05:48:50;;;;;;;12.15;10.02;;;;;;;19.03;69.30;101068.69;5030672;28;20094;-72
2022/07/22 05:51:53;;;;;;;11.93;9.95;;;;;;;19.29;67.99;101069.25;5030379;28;20120;-73
2022/07/22 05:55:00;;;;;;;12.98;10.70;;;;;;;19.45;67.64;101070.69;5031547;28;20510;-76
2022/07/22 05:58:04;;;;;;;10.43;9.32;;;;;;;19.61;66.32;101067.63;5031411;28;20099;-85
2022/07/22 06:01:09;;;;;;;12.07;9.23;;;;;;;19.48;66.35;101067.78;5018709;28;20107;-75
2022/07/22 06:04:15;;;;;;;12.07;10.48;;;;;;;18.90;68.09;101069.78;5040460;28;20040;-82
2022/07/22 06:07:18;;;;;;;13.02;9.88;;;;;;;18.68;68.45;101068.78;5049691;28;20179;-83
2022/07/22 06:10:26;;;;;;;11.65;9.30;;;;;;;18.73;68.66;101066.66;5048136;28;20044;-73
2022/07/22 06:13:30;;;;;;;12.77;9.52;;;;;;;18.85;68.12;101059.53;5050805;28;20055;-73
2022/07/22 06:16:34;;;;;;;12.13;8.27;;;;;;;18.78;67.18;101067.13;5050146;28;20048;-74
2022/07/22 06:19:39;;;;;;;10.50;8.10;;;;;;;19.00;66.05;101063.63;5037609;28;20052;-75
2022/07/22 06:22:42;;;;;;;9.10;6.88;;;;;;;19.22;64.69;101062.78;5050689;28;20402;-75
2022/07/22 06:25:49;;;;;;;7.60;6.68;;;;;;;18.92;64.27;101062.53;5049248;28;20102;-75
2022/07/22 06:29:03;;;;;;;9.23;6.75;;;;;;;18.96;64.85;101058.72;5048528;28;20052;-75
2022/07/22 06:32:06;;;;;;;8.90;6.10;;;;;;;19.26;64.77;101056.25;5050238;28;20246;-75
2022/07/22 06:35:10;;;;;;;9.20;6.70;;;;;;;19.33;63.46;101059.25;5049917;28;20110;-73
2022/07/22 06:38:13;;;;;;;8.48;6.03;;;;;;;19.51;63.35;101051.63;5049854;28;20080;-73
2022/07/22 06:41:37;;;;;;;9.85;5.60;;;;;;;19.41;62.42;101056.81;5050955;28;20052;-74
2022/07/22 06:44:40;;;;;;;11.20;6.68;;;;;;;19.61;62.28;101057.00;5051365;28;20107;-73
2022/07/22 06:47:50;;;;;;;8.13;6.35;;;;;;;19.29;62.32;101050.69;5050408;28;20150;-70
2022/07/22 06:50:55;;;;;;;8.18;6.60;;;;;;;19.35;62.23;101053.84;5062168;28;20044;-73
2022/07/22 06:54:56;;;;;;;11.10;7.70;;;;;;;19.22;63.41;101048.69;5039134;28;20047;-73
2022/07/22 06:58:03;;;;;;;8.32;6.65;;;;;;;19.13;63.43;101055.53;5048076;28;20125;-73
2022/07/22 07:01:07;;;;;;;8.65;6.40;;;;;;;19.13;63.97;101049.41;5051056;28;20087;-73
2022/07/22 07:04:26;;;;;;;9.40;6.55;;;;;;;19.13;62.99;101047.59;5050268;28;20102;-73
2022/07/22 07:07:30;;;;;;;7.97;6.60;;;;;;;19.36;62.62;101052.84;5049097;28;20099;-74
2022/07/22 07:10:37;;;;;;;8.07;6.05;;;;;;;19.30;62.71;101056.84;5058144;28;20056;-74
2022/07/22 07:13:45;;;;;;;11.52;6.57;;;;;;;19.50;62.85;101055.25;5050178;28;20090;-74
2022/07/22 07:16:49;;;;;;;11.07;6.88;;;;;;;19.61;61.65;101051.72;5050901;28;20110;-74
2022/07/22 07:19:52;;;;;;;9.90;6.60;;;;;;;19.41;62.32;101058.63;5061410;28;20114;-74
2022/07/22 07:22:59;;;;;;;9.02;6.22;;;;;;;19.49;62.19;101043.78;5052997;28;20098;-74
2022/07/22 07:26:02;;;;;;;8.80;6.28;;;;;;;19.81;60.74;101039.47;5052196;28;20059;-73
2022/07/22 07:29:07;;;;;;;9.65;7.03;;;;;;;20.02;61.02;101039.50;5053991;28;20205;-74
2022/07/22 07:32:15;;;;;;;10.88;6.15;;;;;;;20.13;59.92;101037.66;5065071;28;20461;-74
2022/07/22 07:35:18;;;;;;;11.82;6.55;;;;;;;20.25;59.55;101026.94;5054543;28;20051;-74
2022/07/22 07:38:27;;;;;;;11.63;6.50;;;;;;;20.34;59.08;101027.00;5053356;28;20727;-76
2022/07/22 07:41:30;;;;;;;15.45;8.07;;;;;;;20.26;59.36;101024.16;5053239;28;20087;-74
2022/07/22 07:44:34;;;;;;;8.50;6.47;;;;;;;20.34;59.68;101026.16;5053195;28;20089;-73
2022/07/22 07:47:37;;;;;;;13.05;6.55;;;;;;;20.37;58.94;101012.63;5052664;28;20464;-77
2022/07/22 07:50:41;;;;;;;10.48;6.22;;;;;;;20.46;58.97;101013.66;5053251;28;20043;-73
2022/07/22 07:54:06;;;;;;;8.77;5.88;;;;;;;20.49;59.02;101019.53;5053580;28;20048;-73
2022/07/22 07:57:10;;;;;;;10.98;6.22;;;;;;;20.30;58.77;101019.44;5052816;28;20044;-73
2022/07/22 08:00:16;;;;;;;9.02;6.07;;;;;;;20.39;58.02;101008.03;5051988;28;20099;-73
2022/07/22 08:03:23;;;;;;;8.55;6.35;;;;;;;20.51;58.18;101001.66;5050637;28;20098;-73
2022/07/22 08:06:26;;;;;;;11.40;5.53;;;;;;;20.51;57.88;101006.09;5051725;28;20462;-73
2022/07/22 08:09:30;;;;;;;8.18;6.05;;;;;;;20.56;58.36;101003.94;5052213;28;20051;-73
2022/07/22 08:12:35;;;;;;;8.95;5.97;;;;;;;20.58;57.65;101004.63;5052816;28;20079;-73
2022/07/22 08:15:56;;;;;;;8.00;6.28;;;;;;;20.54;58.40;100993.44;5053228;28;20295;-73
2022/07/22 08:19:01;;;;;;;8.70;5.90;;;;;;;20.66;59.07;100984.38;5052785;28;20079;-73
2022/07/22 08:22:05;;;;;;;9.32;5.70;;;;;;;20.82;57.88;100980.41;5052953;28;20457;-73
2022/07/22 08:25:10;;;;;;;9.98;5.53;;;;;;;20.84;57.26;100986.44;5049891;28;20060;-73
2022/07/22 08:28:13;;;;;;;8.98;5.70;;;;;;;20.86;58.28;100984.44;5028917;28;20047;-73
2022/07/22 08:31:17;;;;;;;8.38;5.70;;;;;;;20.93;56.87;100980.28;5024315;28;20045;-73
2022/07/22 08:34:21;;;;;;;6.65;5.53;;;;;;;20.94;57.04;100976.66;5011787;28;20494;-73
2022/07/22 08:37:25;;;;;;;7.05;5.55;;;;;;;21.09;56.78;100974.41;5011713;28;20076;-73
2022/07/22 08:40:28;;;;;;;8.18;6.03;;;;;;;20.84;56.64;100978.44;5011719;28;20052;-72
2022/07/22 08:43:39;;;;;;;7.15;5.93;;;;;;;20.73;57.25;100976.72;5012322;28;20120;-74
2022/07/22 08:46:45;;;;;;;6.53;5.38;;;;;;;20.76;58.16;100967.63;5011245;28;20096;-73
2022/07/22 08:49:57;;;;;;;6.85;5.93;;;;;;;20.84;57.05;100971.31;5010778;28;20125;-73
2022/07/22 08:53:16;;;;;;;7.05;6.03;;;;;;;21.02;56.59;100974.13;5011357;28;20073;-74
2022/07/22 08:56:21;;;;;;;9.25;5.88;;;;;;;21.05;56.48;100973.88;5023546;28;20057;-73
2022/07/22 08:59:25;;;;;;;9.35;5.88;;;;;;;21.31;56.66;100968.88;5011124;28;20071;-73
2022/07/22 09:02:37;;;;;;;8.77;5.78;;;;;;;21.55;55.03;100971.16;5009338;28;20045;-73
2022/07/22 09:05:43;;;;;;;6.20;4.80;;;;;;;21.54;54.68;100974.78;5022743;28;20137;-73
2022/07/22 09:08:55;;;;;;;10.98;5.40;;;;;;;21.58;54.42;100962.88;5011454;28;20096;-73
2022/07/22 09:12:19;;;;;;;7.35;5.00;;;;;;;21.52;54.08;100955.47;4997551;28;20136;-73
2022/07/22 09:15:45;;;;;;;7.90;5.80;;;;;;;21.41;54.38;100955.63;5012607;28;20049;-78
2022/07/22 09:19:11;;;;;;;5.82;4.88;;;;;;;21.55;55.21;100955.19;5012596;28;20049;-82
2022/07/22 09:22:34;;;;;;;8.27;5.30;;;;;;;21.80;54.02;100959.09;5011920;28;20060;-73
2022/07/22 09:25:56;;;;;;;7.28;5.28;;;;;;;21.91;54.46;100966.06;5012022;28;20072;-72
2022/07/22 09:29:06;;;;;;;6.80;5.30;;;;;;;21.80;53.87;100963.56;5011057;28;20080;-72
2022/07/22 09:32:41;;;;;;;7.07;5.75;;;;;;;21.80;53.58;100961.75;5022781;28;20531;-71
2022/07/22 09:36:03;;;;;;;6.65;4.85;;;;;;;21.98;53.69;100945.84;5012263;28;20048;-72
2022/07/22 09:39:25;;;;;;;8.10;5.18;;;;;;;22.13;53.91;100945.41;5011062;28;20136;-72
2022/07/22 09:42:44;;;;;;;8.32;5.57;;;;;;;22.40;53.15;100940.16;5011055;28;20075;-72
2022/07/22 09:45:50;;;;;;;7.50;5.00;;;;;;;22.54;53.67;100948.66;5011308;28;20460;-75
2022/07/22 09:48:54;;;;;;;7.68;4.72;;;;;;;22.36;52.84;100930.78;5011124;28;20110;-75
2022/07/22 09:52:15;;;;;;;8.85;5.38;;;;;;;22.47;52.64;100935.91;5011380;28;20049;-74
2022/07/22 09:55:58;;;;;;;7.88;5.57;;;;;;;22.68;52.21;100932.16;5012000;28;20156;-74
2022/07/22 09:59:01;;;;;;;6.30;5.15;;;;;;;22.66;51.24;100934.97;5010966;28;20518;-75
2022/07/22 10:02:16;;;;;;;11.55;5.78;;;;;;;22.63;51.94;100929.13;5010780;28;20104;-74
2022/07/22 10:05:25;;;;;;;9.82;5.25;;;;;;;22.72;52.73;100928.22;5010937;28;20048;-74
2022/07/22 10:08:32;;;;;;;11.48;5.47;;;;;;;22.75;52.86;100919.94;5010191;28;20495;-74
2022/07/22 10:11:37;;;;;;;6.50;5.20;;;;;;;22.60;51.75;100913.41;5011013;28;20044;-73
2022/07/22 10:14:40;;;;;;;8.82;5.32;;;;;;;22.57;51.86;100911.88;5010781;28;20053;-73
2022/07/22 10:17:50;;;;;;;6.75;5.60;;;;;;;22.64;51.23;100910.28;5010811;28;20049;-74
2022/07/22 10:21:08;;;;;;;6.68;5.65;;;;;;;22.65;50.59;100903.97;5010452;28;20048;-73
2022/07/22 10:24:14;;;;;;;7.28;5.50;;;;;;;22.57;50.90;100903.06;5011907;28;20443;-72
2022/07/22 10:27:51;;;;;;;5.53;4.40;;;;;;;22.68;51.60;100908.16;5010779;28;20124;-73
2022/07/22 10:31:19;;;;;;;8.73;5.10;;;;;;;22.70;50.79;100898.22;5010785;28;20045;-72
2022/07/22 10:34:22;;;;;;;5.75;4.80;;;;;;;22.91;51.47;100893.44;5011967;28;20096;-71
2022/07/22 10:37:35;;;;;;;7.05;5.05;;;;;;;23.09;49.68;100893.47;5010015;28;20045;-68
2022/07/22 10:40:58;;;;;;;6.03;4.88;;;;;;;22.97;49.54;100887.53;5010648;28;20084;-70
2022/07/22 10:44:01;;;;;;;6.63;5.03;;;;;;;23.18;50.80;100891.72;4998615;28;20095;-68
2022/07/22 10:47:04;;;;;;;6.20;5.28;;;;;;;23.34;50.85;100878.50;5011103;28;20130;-72
2022/07/22 10:50:35;;;;;;;12.85;5.07;;;;;;;23.40;48.62;100877.88;5011503;28;20045;-67
2022/07/22 10:53:51;;;;;;;8.55;5.25;;;;;;;23.30;48.52;100866.47;5010636;28;20068;-72
2022/07/22 10:57:04;;;;;;;8.40;5.03;;;;;;;23.38;48.36;100863.84;5014425;28;20554;-74
2022/07/22 11:00:09;;;;;;;7.88;5.30;;;;;;;23.61;49.46;100861.53;5014430;28;20507;-73
2022/07/22 11:03:12;;;;;;;9.85;5.22;;;;;;;23.90;47.96;100858.56;5014764;28;20515;-73
2022/07/22 11:06:30;;;;;;;7.93;5.00;;;;;;;23.94;47.09;100853.75;5015076;28;20466;-74
2022/07/22 11:09:34;;;;;;;6.38;5.65;;;;;;;23.87;47.42;100852.72;5014887;28;20045;-72
2022/07/22 11:12:38;;;;;;;8.90;5.65;;;;;;;23.92;46.11;100844.22;5015024;28;20044;-72
2022/07/22 11:15:41;;;;;;;7.32;4.70;;;;;;;23.78;47.04;100845.66;5014948;28;20534;-73
2022/07/22 11:18:46;;;;;;;7.55;4.88;;;;;;;24.06;45.80;100827.59;5015188;28;20045;-71
2022/07/22 11:21:56;;;;;;;7.30;4.55;;;;;;;24.39;46.01;100839.22;5014608;28;20399;-71
2022/07/22 11:25:07;;;;;;;7.05;4.72;;;;;;;24.31;44.41;100832.03;5013876;28;20045;-72
2022/07/22 11:28:12;;;;;;;5.50;4.93;;;;;;;24.34;45.57;100830.84;5015562;28;20533;-80
2022/07/22 11:31:18;;;;;;;6.38;5.30;;;;;;;24.40;45.42;100824.03;5013723;28;20554;-68
2022/07/22 11:34:23;;;;;;;7.88;5.03;;;;;;;24.37;44.91;100823.34;5014974;28;20545;-68
2022/07/22 11:37:30;;;;;;;6.85;5.07;;;;;;;24.54;45.12;100818.94;5014091;28;20045;-69
2022/07/22 11:40:43;;;;;;;6.47;5.05;;;;;;;24.71;44.24;100813.59;5013533;28;20087;-69
2022/07/22 11:43:48;;;;;;;6.00;4.25;;;;;;;24.85;43.64;100812.09;5012517;28;20104;-69
2022/07/22 11:46:52;;;;;;;7.53;5.05;;;;;;;25.10;43.99;100805.75;5013058;28;20091;-68
2022/07/22 11:50:00;;;;;;;6.78;4.80;;;;;;;25.31;43.75;100793.75;5012984;28;20068;-69
2022/07/22 11:53:05;;;;;;;5.72;4.45;;;;;;;25.22;43.39;100808.97;5014182;28;20569;-69
2022/07/22 11:56:10;;;;;;;6.75;5.07;;;;;;;25.19;42.90;100803.94;5029865;28;20462;-69
2022/07/22 11:59:19;;;;;;;5.88;4.78;;;;;;;25.22;42.18;100793.75;5034068;28;20133;-69
2022/07/22 12:02:26;;;;;;;7.65;4.85;;;;;;;25.10;42.33;100794.22;5033948;28;20048;-70
2022/07/22 12:05:29;;;;;;;5.10;4.20;;;;;;;25.25;41.42;100780.03;5033801;28;20052;-70
2022/07/22 12:08:35;;;;;;;6.97;4.78;;;;;;;25.50;40.40;100779.97;5032710;28;20052;-69
2022/07/22 12:11:41;;;;;;;6.43;4.47;;;;;;;25.54;40.53;100772.44;5033346;28;20478;-69
2022/07/22 12:14:47;;;;;;;7.63;4.80;;;;;;;25.82;40.23;100768.34;5032442;28;20079;-70
2022/07/22 12:17:53;;;;;;;5.07;3.80;;;;;;;25.94;39.49;100766.09;5033264;28;20060;-70
2022/07/22 12:20:57;;;;;;;7.13;4.97;;;;;;;25.91;39.71;100763.78;5033550;28;20079;-70
2022/07/22 12:24:04;;;;;;;6.47;4.88;;;;;;;26.06;39.47;100748.63;5033112;28;20056;-70
2022/07/22 12:27:09;;;;;;;6.82;4.55;;;;;;;26.30;38.03;100746.84;5032663;28;20052;-69
2022/07/22 12:30:13;;;;;;;6.50;4.20;;;;;;;26.49;39.22;100738.34;5033473;28;20047;-71
2022/07/22 12:33:18;;;;;;;7.97;4.10;;;;;;;26.63;39.53;100742.09;5033083;28;20045;-72
2022/07/22 12:36:21;;;;;;;6.13;5.00;;;;;;;26.82;38.80;100738.09;5032644;28;20095;-73
2022/07/22 12:39:24;;;;;;;5.40;4.70;;;;;;;26.95;38.21;100743.66;5032074;28;20064;-71
2022/07/22 12:42:31;;;;;;;6.72;4.35;;;;;;;26.99;37.90;100728.03;5032783;28;20048;-73
2022/07/22 12:45:36;;;;;;;6.03;4.32;;;;;;;26.92;39.07;100722.56;5033391;28;20106;-74
2022/07/22 12:48:49;;;;;;;10.02;5.20;;;;;;;27.21;39.42;100724.47;5032701;28;20047;-74
2022/07/22 12:52:13;;;;;;;6.63;4.88;;;;;;;27.48;39.03;100717.66;5032039;28;20119;-81
2022/07/22 12:55:17;;;;;;;5.82;4.25;;;;;;;27.61;38.74;100717.00;5032455;28;20047;-69
2022/07/22 12:58:22;;;;;;;8.85;5.30;;;;;;;27.56;38.75;100719.38;5033088;28;20099;-73
2022/07/22 13:01:26;;;;;;;7.57;4.57;;;;;;;27.69;38.18;100713.34;5032486;28;20118;-70
2022/07/22 13:04:29;;;;;;;6.95;4.53;;;;;;;27.85;37.54;100710.47;5032825;28;20099;-70
2022/07/22 13:07:33;;;;;;;7.10;4.93;;;;;;;27.92;38.11;100708.72;5031312;28;20048;-71
2022/07/22 13:10:36;;;;;;;5.18;4.57;;;;;;;27.97;38.34;100708.97;5032136;28;20068;-69
2022/07/22 13:13:42;;;;;;;5.60;4.88;;;;;;;28.12;37.17;100705.44;5030005;28;20572;-66
2022/07/22 13:16:45;;;;;;;6.70;4.50;;;;;;;28.27;36.56;100701.66;5031248;28;20551;-66
2022/07/22 13:19:49;;;;;;;6.07;4.63;;;;;;;28.25;37.23;100701.00;5031044;28;20095;-68
2022/07/22 13:22:52;;;;;;;9.80;4.93;;;;;;;27.99;38.22;100696.19;5031866;28;20096;-69
2022/07/22 13:25:56;;;;;;;8.70;5.20;;;;;;;28.42;37.56;100696.22;5031675;28;20168;-68
2022/07/22 13:29:00;;;;;;;6.72;4.80;;;;;;;28.16;37.88;100693.25;5011932;28;20522;-76
2022/07/22 13:32:03;;;;;;;6.80;5.00;;;;;;;28.27;37.33;100695.41;5010871;28;20041;-76
2022/07/22 13:35:08;;;;;;;6.68;5.10;;;;;;;28.05;38.32;100690.06;5012263;28;20048;-71
2022/07/22 13:38:11;;;;;;;7.50;4.25;;;;;;;28.25;36.70;100684.03;5012327;28;20072;-70
2022/07/22 13:41:18;;;;;;;7.05;4.22;;;;;;;28.26;37.24;100672.25;5012323;28;20260;-74
2022/07/22 13:44:21;;;;;;;9.95;5.13;;;;;;;29.18;36.03;100671.38;5012382;28;20411;-68
2022/07/22 13:47:26;;;;;;;6.10;4.38;;;;;;;29.63;33.81;100675.34;5011904;28;20120;-67
2022/07/22 13:50:30;;;;;;;7.50;4.93;;;;;;;29.83;33.22;100669.19;5012017;28;20045;-66
2022/07/22 13:53:34;;;;;;;6.13;5.10;;;;;;;29.46;34.01;100670.47;5009897;28;20045;-67
2022/07/22 13:56:39;;;;;;;6.38;5.07;;;;;;;29.23;34.59;100674.31;5012590;28;20532;-67
2022/07/22 13:59:46;;;;;;;9.50;4.60;;;;;;;29.71;34.61;100668.94;5011771;28;20107;-68
2022/07/22 14:02:52;;;;;;;5.10;4.38;;;;;;;29.25;34.85;100674.91;5011253;28;20048;-67
2022/07/22 14:05:56;;;;;;;5.00;4.50;;;;;;;29.73;33.54;100664.16;5012176;28;20184;-68
2022/07/22 14:09:04;;;;;;;6.47;4.60;;;;;;;30.55;33.35;100668.47;5012023;28;20056;-68
2022/07/22 14:12:08;;;;;;;7.70;4.20;;;;;;;31.15;32.62;100667.59;5011287;28;20044;-67
2022/07/22 14:15:14;;;;;;;6.85;3.97;;;;;;;31.63;31.77;100662.66;5009701;28;20041;-68
2022/07/22 14:18:18;;;;;;;7.20;4.03;;;;;;;32.56;29.53;100670.22;5011335;28;20049;-68
2022/07/22 14:21:21;;;;;;;6.78;4.70;;;;;;;32.88;29.93;100670.13;5011743;28;20099;-68
2022/07/22 14:24:26;;;;;;;4.72;4.20;;;;;;;31.50;31.52;100665.44;5011904;28;20133;-68
2022/07/22 14:27:29;;;;;;;5.38;4.45;;;;;;;29.54;34.65;100675.69;5012274;28;20175;-68
2022/07/22 14:30:58;;;;;;;6.25;4.05;;;;;;;32.63;29.91;100668.28;5012345;28;20511;-69